sensor_id;sensor_type;location;lat;lon;timestamp;P1;durP1;ratioP1;P2;durP2;ratioP2
68140;SDS011;54941;52.220;104.306;2023-11-19T00:01:39;4.25;;;2.22;;
68140;SDS011;54941;52.220;104.306;2023-11-19T00:04:05;4.65;;;2.50;;
68140;SDS011;54941;52.220;104.306;2023-11-19T00:06:33;5.05;;;2.85;;
68140;SDS011;54941;52.220;104.306;2023-11-19T00:09:00;4.28;;;2.40;;
68140;SDS011;54941;52.220;104.306;2023-11-19T00:11:26;4.18;;;2.22;;
68140;SDS011;54941;52.220;104.306;2023-11-19T00:13:53;5.32;;;2.45;;
68140;SDS011;54941;52.220;104.306;2023-11-19T00:16:19;5.22;;;2.55;;
68140;SDS011;54941;52.220;104.306;2023-11-19T00:18:45;4.60;;;2.28;;
68140;SDS011;54941;52.220;104.306;2023-11-19T00:21:12;4.60;;;2.40;;
68140;SDS011;54941;52.220;104.306;2023-11-19T00:23:40;4.07;;;2.45;;
68140;SDS011;54941;52.220;104.306;2023-11-19T00:26:06;6.63;;;2.47;;
68140;SDS011;54941;52.220;104.306;2023-11-19T00:28:32;5.50;;;2.50;;
68140;SDS011;54941;52.220;104.306;2023-11-19T00:30:59;5.28;;;2.80;;
68140;SDS011;54941;52.220;104.306;2023-11-19T00:33:25;5.43;;;2.05;;
68140;SDS011;54941;52.220;104.306;2023-11-19T00:35:51;5.18;;;2.70;;
68140;SDS011;54941;52.220;104.306;2023-11-19T00:38:18;5.47;;;2.75;;
68140;SDS011;54941;52.220;104.306;2023-11-19T00:40:46;6.10;;;1.77;;
68140;SDS011;54941;52.220;104.306;2023-11-19T00:43:12;5.63;;;3.03;;
68140;SDS011;54941;52.220;104.306;2023-11-19T00:45:38;4.78;;;2.47;;
68140;SDS011;54941;52.220;104.306;2023-11-19T00:48:05;4.85;;;2.33;;
68140;SDS011;54941;52.220;104.306;2023-11-19T00:50:31;6.22;;;2.60;;
68140;SDS011;54941;52.220;104.306;2023-11-19T00:52:58;4.50;;;2.25;;
68140;SDS011;54941;52.220;104.306;2023-11-19T00:55:24;6.53;;;3.03;;
68140;SDS011;54941;52.220;104.306;2023-11-19T00:57:52;5.75;;;2.70;;
68140;SDS011;54941;52.220;104.306;2023-11-19T01:00:18;7.85;;;3.25;;
68140;SDS011;54941;52.220;104.306;2023-11-19T01:02:45;9.25;;;3.58;;
68140;SDS011;54941;52.220;104.306;2023-11-19T01:05:11;7.63;;;3.15;;
68140;SDS011;54941;52.220;104.306;2023-11-19T01:07:38;5.45;;;2.60;;
68140;SDS011;54941;52.220;104.306;2023-11-19T01:10:05;4.68;;;2.45;;
68140;SDS011;54941;52.220;104.306;2023-11-19T01:12:32;3.03;;;1.73;;
68140;SDS011;54941;52.220;104.306;2023-11-19T01:15:00;5.18;;;2.33;;
68140;SDS011;54941;52.220;104.306;2023-11-19T01:17:26;5.50;;;2.67;;
68140;SDS011;54941;52.220;104.306;2023-11-19T01:19:52;5.35;;;2.80;;
68140;SDS011;54941;52.220;104.306;2023-11-19T01:22:19;4.68;;;2.08;;
68140;SDS011;54941;52.220;104.306;2023-11-19T01:24:45;6.10;;;2.40;;
68140;SDS011;54941;52.220;104.306;2023-11-19T01:27:11;5.25;;;2.80;;
68140;SDS011;54941;52.220;104.306;2023-11-19T01:29:38;4.45;;;2.17;;
68140;SDS011;54941;52.220;104.306;2023-11-19T01:32:06;4.57;;;1.92;;
68140;SDS011;54941;52.220;104.306;2023-11-19T01:34:33;3.10;;;1.73;;
68140;SDS011;54941;52.220;104.306;2023-11-19T01:36:59;4.35;;;2.22;;
68140;SDS011;54941;52.220;104.306;2023-11-19T01:39:25;5.70;;;2.40;;
68140;SDS011;54941;52.220;104.306;2023-11-19T01:41:52;3.60;;;1.90;;
68140;SDS011;54941;52.220;104.306;2023-11-19T01:44:18;4.07;;;1.95;;
68140;SDS011;54941;52.220;104.306;2023-11-19T01:46:45;4.90;;;2.30;;
68140;SDS011;54941;52.220;104.306;2023-11-19T01:49:14;5.35;;;2.35;;
68140;SDS011;54941;52.220;104.306;2023-11-19T01:51:43;4.25;;;2.25;;
68140;SDS011;54941;52.220;104.306;2023-11-19T01:54:10;6.22;;;2.30;;
68140;SDS011;54941;52.220;104.306;2023-11-19T01:56:37;3.75;;;2.20;;
68140;SDS011;54941;52.220;104.306;2023-11-19T01:59:05;3.65;;;1.90;;
68140;SDS011;54941;52.220;104.306;2023-11-19T02:01:33;3.80;;;1.70;;
68140;SDS011;54941;52.220;104.306;2023-11-19T02:04:01;2.80;;;1.60;;
68140;SDS011;54941;52.220;104.306;2023-11-19T02:06:29;4.20;;;2.08;;
68140;SDS011;54941;52.220;104.306;2023-11-19T02:08:58;5.70;;;3.13;;
68140;SDS011;54941;52.220;104.306;2023-11-19T02:11:24;3.50;;;2.03;;
68140;SDS011;54941;52.220;104.306;2023-11-19T02:13:51;4.50;;;2.13;;
68140;SDS011;54941;52.220;104.306;2023-11-19T02:16:17;5.45;;;2.33;;
68140;SDS011;54941;52.220;104.306;2023-11-19T02:18:44;4.15;;;2.03;;
68140;SDS011;54941;52.220;104.306;2023-11-19T02:21:10;4.15;;;2.10;;
68140;SDS011;54941;52.220;104.306;2023-11-19T02:23:38;3.85;;;2.05;;
68140;SDS011;54941;52.220;104.306;2023-11-19T02:26:09;4.22;;;1.70;;
68140;SDS011;54941;52.220;104.306;2023-11-19T02:28:42;3.85;;;1.92;;
68140;SDS011;54941;52.220;104.306;2023-11-19T02:31:09;4.30;;;2.05;;
68140;SDS011;54941;52.220;104.306;2023-11-19T02:33:35;3.05;;;1.60;;
68140;SDS011;54941;52.220;104.306;2023-11-19T02:36:02;3.88;;;1.92;;
68140;SDS011;54941;52.220;104.306;2023-11-19T02:38:29;3.78;;;1.40;;
68140;SDS011;54941;52.220;104.306;2023-11-19T02:40:56;2.83;;;1.58;;
68140;SDS011;54941;52.220;104.306;2023-11-19T02:43:22;3.70;;;1.70;;
68140;SDS011;54941;52.220;104.306;2023-11-19T02:45:50;3.22;;;1.70;;
68140;SDS011;54941;52.220;104.306;2023-11-19T02:48:16;5.20;;;1.88;;
68140;SDS011;54941;52.220;104.306;2023-11-19T02:50:43;4.03;;;1.80;;
68140;SDS011;54941;52.220;104.306;2023-11-19T02:53:09;4.20;;;1.80;;
68140;SDS011;54941;52.220;104.306;2023-11-19T02:55:36;4.25;;;2.03;;
68140;SDS011;54941;52.220;104.306;2023-11-19T02:58:02;3.38;;;1.75;;
68140;SDS011;54941;52.220;104.306;2023-11-19T03:00:29;3.60;;;2.13;;
68140;SDS011;54941;52.220;104.306;2023-11-19T03:02:56;5.78;;;1.98;;
68140;SDS011;54941;52.220;104.306;2023-11-19T03:05:23;3.60;;;1.90;;
68140;SDS011;54941;52.220;104.306;2023-11-19T03:07:49;3.30;;;1.45;;
68140;SDS011;54941;52.220;104.306;2023-11-19T03:10:16;2.88;;;1.38;;
68140;SDS011;54941;52.220;104.306;2023-11-19T03:12:43;3.40;;;1.75;;
68140;SDS011;54941;52.220;104.306;2023-11-19T03:15:10;3.03;;;1.50;;
68140;SDS011;54941;52.220;104.306;2023-11-19T03:17:37;4.35;;;1.60;;
68140;SDS011;54941;52.220;104.306;2023-11-19T03:20:07;3.83;;;2.10;;
68140;SDS011;54941;52.220;104.306;2023-11-19T03:22:34;5.57;;;1.95;;
68140;SDS011;54941;52.220;104.306;2023-11-19T03:25:00;4.35;;;1.95;;
68140;SDS011;54941;52.220;104.306;2023-11-19T03:27:29;5.22;;;1.92;;
68140;SDS011;54941;52.220;104.306;2023-11-19T03:29:56;6.10;;;2.92;;
68140;SDS011;54941;52.220;104.306;2023-11-19T03:32:22;4.18;;;2.10;;
68140;SDS011;54941;52.220;104.306;2023-11-19T03:34:48;4.68;;;2.05;;
68140;SDS011;54941;52.220;104.306;2023-11-19T03:37:16;4.75;;;2.00;;
68140;SDS011;54941;52.220;104.306;2023-11-19T03:39:46;3.95;;;2.40;;
68140;SDS011;54941;52.220;104.306;2023-11-19T03:42:19;4.75;;;2.00;;
68140;SDS011;54941;52.220;104.306;2023-11-19T03:44:46;2.50;;;1.48;;
68140;SDS011;54941;52.220;104.306;2023-11-19T03:47:12;3.55;;;1.60;;
68140;SDS011;54941;52.220;104.306;2023-11-19T03:49:39;3.00;;;1.63;;
68140;SDS011;54941;52.220;104.306;2023-11-19T03:52:05;3.53;;;1.70;;
68140;SDS011;54941;52.220;104.306;2023-11-19T03:54:33;4.47;;;2.00;;
68140;SDS011;54941;52.220;104.306;2023-11-19T03:56:59;3.60;;;1.65;;
68140;SDS011;54941;52.220;104.306;2023-11-19T03:59:26;3.58;;;2.10;;
68140;SDS011;54941;52.220;104.306;2023-11-19T04:01:55;3.95;;;1.77;;
68140;SDS011;54941;52.220;104.306;2023-11-19T04:04:21;3.97;;;1.65;;
68140;SDS011;54941;52.220;104.306;2023-11-19T04:06:47;4.28;;;1.75;;
68140;SDS011;54941;52.220;104.306;2023-11-19T04:09:14;4.07;;;2.05;;
68140;SDS011;54941;52.220;104.306;2023-11-19T04:11:42;5.10;;;2.78;;
68140;SDS011;54941;52.220;104.306;2023-11-19T04:14:08;7.00;;;2.42;;
68140;SDS011;54941;52.220;104.306;2023-11-19T04:16:34;4.60;;;1.85;;
68140;SDS011;54941;52.220;104.306;2023-11-19T04:19:02;4.13;;;1.98;;
68140;SDS011;54941;52.220;104.306;2023-11-19T04:21:29;3.75;;;1.63;;
68140;SDS011;54941;52.220;104.306;2023-11-19T04:23:55;5.85;;;2.22;;
68140;SDS011;54941;52.220;104.306;2023-11-19T04:26:22;2.83;;;1.50;;
68140;SDS011;54941;52.220;104.306;2023-11-19T04:28:49;3.47;;;1.83;;
68140;SDS011;54941;52.220;104.306;2023-11-19T04:31:16;4.53;;;1.90;;
68140;SDS011;54941;52.220;104.306;2023-11-19T04:33:42;5.28;;;2.00;;
68140;SDS011;54941;52.220;104.306;2023-11-19T04:36:09;4.07;;;2.00;;
68140;SDS011;54941;52.220;104.306;2023-11-19T04:38:35;4.95;;;2.72;;
68140;SDS011;54941;52.220;104.306;2023-11-19T04:41:02;4.25;;;2.47;;
68140;SDS011;54941;52.220;104.306;2023-11-19T04:43:29;4.88;;;2.72;;
68140;SDS011;54941;52.220;104.306;2023-11-19T04:45:56;5.38;;;2.50;;
68140;SDS011;54941;52.220;104.306;2023-11-19T04:48:26;6.13;;;2.65;;
68140;SDS011;54941;52.220;104.306;2023-11-19T04:50:52;6.75;;;3.30;;
68140;SDS011;54941;52.220;104.306;2023-11-19T04:53:19;7.72;;;4.13;;
68140;SDS011;54941;52.220;104.306;2023-11-19T04:55:45;9.55;;;3.85;;
68140;SDS011;54941;52.220;104.306;2023-11-19T04:58:12;5.15;;;2.60;;
68140;SDS011;54941;52.220;104.306;2023-11-19T05:00:38;4.97;;;2.50;;
68140;SDS011;54941;52.220;104.306;2023-11-19T05:03:06;8.45;;;3.55;;
68140;SDS011;54941;52.220;104.306;2023-11-19T05:05:32;4.88;;;2.58;;
68140;SDS011;54941;52.220;104.306;2023-11-19T05:07:58;8.98;;;3.50;;
68140;SDS011;54941;52.220;104.306;2023-11-19T05:10:25;7.68;;;4.13;;
68140;SDS011;54941;52.220;104.306;2023-11-19T05:12:51;5.45;;;2.60;;
68140;SDS011;54941;52.220;104.306;2023-11-19T05:15:18;4.38;;;2.40;;
68140;SDS011;54941;52.220;104.306;2023-11-19T05:17:44;4.38;;;2.30;;
68140;SDS011;54941;52.220;104.306;2023-11-19T05:20:12;4.93;;;2.10;;
68140;SDS011;54941;52.220;104.306;2023-11-19T05:22:39;4.43;;;2.30;;
68140;SDS011;54941;52.220;104.306;2023-11-19T05:25:06;4.40;;;1.98;;
68140;SDS011;54941;52.220;104.306;2023-11-19T05:27:33;4.13;;;1.90;;
68140;SDS011;54941;52.220;104.306;2023-11-19T05:29:59;3.50;;;1.77;;
68140;SDS011;54941;52.220;104.306;2023-11-19T05:32:26;3.80;;;1.90;;
68140;SDS011;54941;52.220;104.306;2023-11-19T05:34:52;3.90;;;2.13;;
68140;SDS011;54941;52.220;104.306;2023-11-19T05:37:20;3.53;;;1.70;;
68140;SDS011;54941;52.220;104.306;2023-11-19T05:39:46;3.90;;;1.95;;
68140;SDS011;54941;52.220;104.306;2023-11-19T05:42:13;4.07;;;2.05;;
68140;SDS011;54941;52.220;104.306;2023-11-19T05:44:39;4.13;;;1.83;;
68140;SDS011;54941;52.220;104.306;2023-11-19T05:47:05;5.57;;;2.20;;
68140;SDS011;54941;52.220;104.306;2023-11-19T05:49:32;3.88;;;2.30;;
68140;SDS011;54941;52.220;104.306;2023-11-19T05:51:58;4.47;;;2.50;;
68140;SDS011;54941;52.220;104.306;2023-11-19T05:54:26;4.05;;;2.38;;
68140;SDS011;54941;52.220;104.306;2023-11-19T05:56:52;4.28;;;2.08;;
68140;SDS011;54941;52.220;104.306;2023-11-19T05:59:19;5.00;;;2.10;;
68140;SDS011;54941;52.220;104.306;2023-11-19T06:01:45;3.28;;;1.60;;
68140;SDS011;54941;52.220;104.306;2023-11-19T06:04:11;4.28;;;1.65;;
68140;SDS011;54941;52.220;104.306;2023-11-19T06:06:38;4.80;;;1.85;;
68140;SDS011;54941;52.220;104.306;2023-11-19T06:09:05;3.92;;;2.00;;
68140;SDS011;54941;52.220;104.306;2023-11-19T06:11:33;6.47;;;3.03;;
68140;SDS011;54941;52.220;104.306;2023-11-19T06:14:00;4.93;;;2.20;;
68140;SDS011;54941;52.220;104.306;2023-11-19T06:16:26;5.25;;;2.47;;
68140;SDS011;54941;52.220;104.306;2023-11-19T06:18:53;5.45;;;2.63;;
68140;SDS011;54941;52.220;104.306;2023-11-19T06:21:19;8.27;;;4.05;;
68140;SDS011;54941;52.220;104.306;2023-11-19T06:23:45;6.97;;;3.42;;
68140;SDS011;54941;52.220;104.306;2023-11-19T06:26:12;5.95;;;2.35;;
68140;SDS011;54941;52.220;104.306;2023-11-19T06:28:40;4.35;;;2.03;;
68140;SDS011;54941;52.220;104.306;2023-11-19T06:31:06;3.50;;;1.60;;
68140;SDS011;54941;52.220;104.306;2023-11-19T06:33:32;4.53;;;2.13;;
68140;SDS011;54941;52.220;104.306;2023-11-19T06:35:59;3.05;;;1.80;;
68140;SDS011;54941;52.220;104.306;2023-11-19T06:38:25;3.53;;;1.83;;
68140;SDS011;54941;52.220;104.306;2023-11-19T06:40:51;4.18;;;1.58;;
68140;SDS011;54941;52.220;104.306;2023-11-19T06:43:18;3.83;;;2.03;;
68140;SDS011;54941;52.220;104.306;2023-11-19T06:45:46;3.88;;;1.73;;
68140;SDS011;54941;52.220;104.306;2023-11-19T06:48:12;3.90;;;1.70;;
68140;SDS011;54941;52.220;104.306;2023-11-19T06:50:38;3.08;;;1.70;;
68140;SDS011;54941;52.220;104.306;2023-11-19T06:53:05;4.10;;;2.13;;
68140;SDS011;54941;52.220;104.306;2023-11-19T06:55:34;4.45;;;2.10;;
68140;SDS011;54941;52.220;104.306;2023-11-19T06:58:00;4.13;;;2.33;;
68140;SDS011;54941;52.220;104.306;2023-11-19T07:00:26;5.18;;;2.22;;
68140;SDS011;54941;52.220;104.306;2023-11-19T07:02:54;3.78;;;2.00;;
68140;SDS011;54941;52.220;104.306;2023-11-19T07:05:21;3.58;;;1.60;;
68140;SDS011;54941;52.220;104.306;2023-11-19T07:07:47;3.10;;;1.80;;
68140;SDS011;54941;52.220;104.306;2023-11-19T07:10:14;3.60;;;2.03;;
68140;SDS011;54941;52.220;104.306;2023-11-19T07:12:40;3.53;;;1.73;;
68140;SDS011;54941;52.220;104.306;2023-11-19T07:15:07;4.63;;;1.70;;
68140;SDS011;54941;52.220;104.306;2023-11-19T07:17:34;2.88;;;1.60;;
68140;SDS011;54941;52.220;104.306;2023-11-19T07:20:02;4.45;;;1.77;;
68140;SDS011;54941;52.220;104.306;2023-11-19T07:22:30;3.90;;;1.90;;
68140;SDS011;54941;52.220;104.306;2023-11-19T07:24:56;4.25;;;1.73;;
68140;SDS011;54941;52.220;104.306;2023-11-19T07:27:22;3.47;;;1.63;;
68140;SDS011;54941;52.220;104.306;2023-11-19T07:29:49;3.17;;;1.58;;
68140;SDS011;54941;52.220;104.306;2023-11-19T07:32:15;4.25;;;1.95;;
68140;SDS011;54941;52.220;104.306;2023-11-19T07:34:41;4.28;;;2.00;;
68140;SDS011;54941;52.220;104.306;2023-11-19T07:37:09;3.75;;;1.70;;
68140;SDS011;54941;52.220;104.306;2023-11-19T07:39:36;3.28;;;1.65;;
68140;SDS011;54941;52.220;104.306;2023-11-19T07:42:02;5.13;;;2.13;;
68140;SDS011;54941;52.220;104.306;2023-11-19T07:44:29;4.40;;;2.00;;
68140;SDS011;54941;52.220;104.306;2023-11-19T07:46:55;6.60;;;1.50;;
68140;SDS011;54941;52.220;104.306;2023-11-19T07:49:22;5.40;;;2.00;;
68140;SDS011;54941;52.220;104.306;2023-11-19T07:51:48;4.55;;;2.42;;
68140;SDS011;54941;52.220;104.306;2023-11-19T07:54:16;4.72;;;1.80;;
68140;SDS011;54941;52.220;104.306;2023-11-19T07:56:42;5.82;;;1.80;;
68140;SDS011;54941;52.220;104.306;2023-11-19T07:59:09;4.90;;;2.10;;
68140;SDS011;54941;52.220;104.306;2023-11-19T08:01:35;4.78;;;2.40;;
68140;SDS011;54941;52.220;104.306;2023-11-19T08:04:01;4.40;;;2.20;;
68140;SDS011;54941;52.220;104.306;2023-11-19T08:06:28;5.00;;;1.80;;
68140;SDS011;54941;52.220;104.306;2023-11-19T08:08:54;4.15;;;2.00;;
68140;SDS011;54941;52.220;104.306;2023-11-19T08:11:22;4.63;;;2.03;;
68140;SDS011;54941;52.220;104.306;2023-11-19T08:13:49;3.70;;;1.77;;
68140;SDS011;54941;52.220;104.306;2023-11-19T08:16:15;4.32;;;1.90;;
68140;SDS011;54941;52.220;104.306;2023-11-19T08:18:42;4.05;;;1.80;;
68140;SDS011;54941;52.220;104.306;2023-11-19T08:21:09;4.03;;;1.95;;
68140;SDS011;54941;52.220;104.306;2023-11-19T08:23:35;3.90;;;2.08;;
68140;SDS011;54941;52.220;104.306;2023-11-19T08:26:02;4.60;;;2.10;;
68140;SDS011;54941;52.220;104.306;2023-11-19T08:28:31;4.25;;;2.00;;
68140;SDS011;54941;52.220;104.306;2023-11-19T08:30:57;3.72;;;1.98;;
68140;SDS011;54941;52.220;104.306;2023-11-19T08:33:23;5.05;;;2.13;;
68140;SDS011;54941;52.220;104.306;2023-11-19T08:35:50;4.95;;;2.38;;
68140;SDS011;54941;52.220;104.306;2023-11-19T08:38:16;6.75;;;2.03;;
68140;SDS011;54941;52.220;104.306;2023-11-19T08:40:42;5.05;;;2.17;;
68140;SDS011;54941;52.220;104.306;2023-11-19T08:43:09;4.85;;;1.90;;
68140;SDS011;54941;52.220;104.306;2023-11-19T08:45:37;5.18;;;2.28;;
68140;SDS011;54941;52.220;104.306;2023-11-19T08:48:03;5.90;;;2.22;;
68140;SDS011;54941;52.220;104.306;2023-11-19T08:50:30;5.38;;;2.20;;
68140;SDS011;54941;52.220;104.306;2023-11-19T08:52:56;5.00;;;2.25;;
68140;SDS011;54941;52.220;104.306;2023-11-19T08:55:22;3.63;;;2.00;;
68140;SDS011;54941;52.220;104.306;2023-11-19T08:57:49;6.32;;;2.58;;
68140;SDS011;54941;52.220;104.306;2023-11-19T09:00:15;3.47;;;1.70;;
68140;SDS011;54941;52.220;104.306;2023-11-19T09:02:43;4.55;;;2.10;;
68140;SDS011;54941;52.220;104.306;2023-11-19T09:05:10;3.40;;;1.70;;
68140;SDS011;54941;52.220;104.306;2023-11-19T09:07:36;3.70;;;2.05;;
68140;SDS011;54941;52.220;104.306;2023-11-19T09:10:03;5.13;;;2.15;;
68140;SDS011;54941;52.220;104.306;2023-11-19T09:12:30;5.25;;;2.35;;
68140;SDS011;54941;52.220;104.306;2023-11-19T09:14:56;4.20;;;2.22;;
68140;SDS011;54941;52.220;104.306;2023-11-19T09:17:22;3.40;;;1.90;;
68140;SDS011;54941;52.220;104.306;2023-11-19T09:19:50;5.43;;;2.20;;
68140;SDS011;54941;52.220;104.306;2023-11-19T09:22:17;5.35;;;2.08;;
68140;SDS011;54941;52.220;104.306;2023-11-19T09:24:43;4.70;;;1.92;;
68140;SDS011;54941;52.220;104.306;2023-11-19T09:27:09;6.53;;;2.50;;
68140;SDS011;54941;52.220;104.306;2023-11-19T09:29:36;4.90;;;1.80;;
68140;SDS011;54941;52.220;104.306;2023-11-19T09:32:02;6.35;;;2.13;;
68140;SDS011;54941;52.220;104.306;2023-11-19T09:34:29;5.13;;;1.90;;
68140;SDS011;54941;52.220;104.306;2023-11-19T09:36:57;4.80;;;2.10;;
68140;SDS011;54941;52.220;104.306;2023-11-19T09:39:23;3.40;;;1.88;;
68140;SDS011;54941;52.220;104.306;2023-11-19T09:41:49;4.55;;;1.92;;
68140;SDS011;54941;52.220;104.306;2023-11-19T09:44:16;3.67;;;1.83;;
68140;SDS011;54941;52.220;104.306;2023-11-19T09:46:43;3.33;;;1.67;;
68140;SDS011;54941;52.220;104.306;2023-11-19T09:49:10;5.18;;;2.03;;
68140;SDS011;54941;52.220;104.306;2023-11-19T09:51:38;7.35;;;2.88;;
68140;SDS011;54941;52.220;104.306;2023-11-19T09:54:06;6.93;;;3.35;;
68140;SDS011;54941;52.220;104.306;2023-11-19T09:56:33;7.80;;;4.05;;
68140;SDS011;54941;52.220;104.306;2023-11-19T09:59:01;5.28;;;2.67;;
68140;SDS011;54941;52.220;104.306;2023-11-19T10:01:28;7.95;;;3.70;;
68140;SDS011;54941;52.220;104.306;2023-11-19T10:03:55;7.80;;;3.47;;
68140;SDS011;54941;52.220;104.306;2023-11-19T10:06:22;5.13;;;2.53;;
68140;SDS011;54941;52.220;104.306;2023-11-19T10:08:50;6.40;;;3.10;;
68140;SDS011;54941;52.220;104.306;2023-11-19T10:11:23;6.20;;;3.10;;
68140;SDS011;54941;52.220;104.306;2023-11-19T10:13:50;4.85;;;2.72;;
68140;SDS011;54941;52.220;104.306;2023-11-19T10:16:18;3.80;;;1.90;;
68140;SDS011;54941;52.220;104.306;2023-11-19T10:18:45;3.97;;;2.15;;
68140;SDS011;54941;52.220;104.306;2023-11-19T10:21:12;6.97;;;2.60;;
68140;SDS011;54941;52.220;104.306;2023-11-19T10:23:51;5.60;;;2.70;;
68140;SDS011;54941;52.220;104.306;2023-11-19T10:26:19;4.68;;;2.20;;
68140;SDS011;54941;52.220;104.306;2023-11-19T10:28:48;5.57;;;2.28;;
68140;SDS011;54941;52.220;104.306;2023-11-19T10:31:15;4.55;;;2.25;;
68140;SDS011;54941;52.220;104.306;2023-11-19T10:33:42;4.25;;;2.08;;
68140;SDS011;54941;52.220;104.306;2023-11-19T10:36:08;4.00;;;2.28;;
68140;SDS011;54941;52.220;104.306;2023-11-19T10:38:35;5.57;;;2.35;;
68140;SDS011;54941;52.220;104.306;2023-11-19T10:41:01;4.78;;;2.22;;
68140;SDS011;54941;52.220;104.306;2023-11-19T10:43:28;5.03;;;2.20;;
68140;SDS011;54941;52.220;104.306;2023-11-19T10:45:56;9.57;;;4.50;;
68140;SDS011;54941;52.220;104.306;2023-11-19T10:48:35;7.72;;;3.83;;
68140;SDS011;54941;52.220;104.306;2023-11-19T10:51:02;7.53;;;3.60;;
68140;SDS011;54941;52.220;104.306;2023-11-19T10:53:31;8.45;;;4.25;;
68140;SDS011;54941;52.220;104.306;2023-11-19T10:56:01;8.35;;;3.95;;
68140;SDS011;54941;52.220;104.306;2023-11-19T10:58:30;11.77;;;4.20;;
68140;SDS011;54941;52.220;104.306;2023-11-19T11:01:01;8.65;;;4.00;;
68140;SDS011;54941;52.220;104.306;2023-11-19T11:03:29;8.45;;;4.28;;
68140;SDS011;54941;52.220;104.306;2023-11-19T11:06:05;8.32;;;3.72;;
68140;SDS011;54941;52.220;104.306;2023-11-19T11:08:32;6.20;;;2.95;;
68140;SDS011;54941;52.220;104.306;2023-11-19T11:11:02;5.53;;;2.20;;
68140;SDS011;54941;52.220;104.306;2023-11-19T11:13:30;5.65;;;2.47;;
68140;SDS011;54941;52.220;104.306;2023-11-19T11:15:59;4.35;;;2.55;;
68140;SDS011;54941;52.220;104.306;2023-11-19T11:18:26;5.32;;;2.22;;
68140;SDS011;54941;52.220;104.306;2023-11-19T11:20:54;3.85;;;2.00;;
68140;SDS011;54941;52.220;104.306;2023-11-19T11:23:33;3.88;;;2.03;;
68140;SDS011;54941;52.220;104.306;2023-11-19T11:26:22;6.18;;;2.67;;
68140;SDS011;54941;52.220;104.306;2023-11-19T11:29:09;6.22;;;2.90;;
68140;SDS011;54941;52.220;104.306;2023-11-19T11:31:44;4.65;;;1.90;;
68140;SDS011;54941;52.220;104.306;2023-11-19T11:37:32;7.20;;;2.22;;
68140;SDS011;54941;52.220;104.306;2023-11-19T11:40:01;5.88;;;2.17;;
68140;SDS011;54941;52.220;104.306;2023-11-19T11:42:35;4.97;;;2.15;;
68140;SDS011;54941;52.220;104.306;2023-11-19T11:45:03;4.88;;;2.13;;
68140;SDS011;54941;52.220;104.306;2023-11-19T11:50:33;4.75;;;2.33;;
68140;SDS011;54941;52.220;104.306;2023-11-19T11:53:13;4.93;;;2.47;;
68140;SDS011;54941;52.220;104.306;2023-11-19T11:55:52;5.20;;;2.70;;
68140;SDS011;54941;52.220;104.306;2023-11-19T11:58:22;5.15;;;2.47;;
68140;SDS011;54941;52.220;104.306;2023-11-19T12:00:52;5.25;;;2.83;;
68140;SDS011;54941;52.220;104.306;2023-11-19T12:03:19;5.28;;;2.83;;
68140;SDS011;54941;52.220;104.306;2023-11-19T12:05:48;5.70;;;2.75;;
68140;SDS011;54941;52.220;104.306;2023-11-19T12:08:17;5.70;;;2.85;;
68140;SDS011;54941;52.220;104.306;2023-11-19T12:10:45;5.15;;;2.60;;
68140;SDS011;54941;52.220;104.306;2023-11-19T12:13:12;4.97;;;2.65;;
68140;SDS011;54941;52.220;104.306;2023-11-19T12:18:33;4.40;;;2.35;;
68140;SDS011;54941;52.220;104.306;2023-11-19T12:21:01;4.70;;;2.40;;
68140;SDS011;54941;52.220;104.306;2023-11-19T12:23:27;4.80;;;2.60;;
68140;SDS011;54941;52.220;104.306;2023-11-19T12:25:55;4.90;;;2.38;;
68140;SDS011;54941;52.220;104.306;2023-11-19T12:28:21;5.22;;;2.80;;
68140;SDS011;54941;52.220;104.306;2023-11-19T12:30:48;5.28;;;2.50;;
68140;SDS011;54941;52.220;104.306;2023-11-19T12:33:14;6.90;;;2.67;;
68140;SDS011;54941;52.220;104.306;2023-11-19T12:35:41;5.82;;;2.75;;
68140;SDS011;54941;52.220;104.306;2023-11-19T12:38:17;6.07;;;2.95;;
68140;SDS011;54941;52.220;104.306;2023-11-19T12:40:44;5.88;;;2.78;;
68140;SDS011;54941;52.220;104.306;2023-11-19T12:43:11;5.38;;;3.10;;
68140;SDS011;54941;52.220;104.306;2023-11-19T12:45:47;6.18;;;2.88;;
68140;SDS011;54941;52.220;104.306;2023-11-19T12:48:14;9.35;;;4.28;;
68140;SDS011;54941;52.220;104.306;2023-11-19T12:50:52;7.43;;;3.65;;
68140;SDS011;54941;52.220;104.306;2023-11-19T12:53:21;6.57;;;3.40;;
68140;SDS011;54941;52.220;104.306;2023-11-19T12:55:48;5.40;;;2.53;;
68140;SDS011;54941;52.220;104.306;2023-11-19T12:58:30;4.65;;;2.55;;
68140;SDS011;54941;52.220;104.306;2023-11-19T13:01:00;6.72;;;3.05;;
68140;SDS011;54941;52.220;104.306;2023-11-19T13:03:31;6.82;;;3.22;;
68140;SDS011;54941;52.220;104.306;2023-11-19T13:06:04;6.60;;;3.30;;
68140;SDS011;54941;52.220;104.306;2023-11-19T13:08:40;6.25;;;3.00;;
68140;SDS011;54941;52.220;104.306;2023-11-19T13:11:08;8.77;;;3.65;;
68140;SDS011;54941;52.220;104.306;2023-11-19T13:16:21;10.20;;;5.70;;
68140;SDS011;54941;52.220;104.306;2023-11-19T13:18:48;10.00;;;4.20;;
68140;SDS011;54941;52.220;104.306;2023-11-19T13:21:14;9.15;;;4.32;;
68140;SDS011;54941;52.220;104.306;2023-11-19T13:23:42;9.90;;;4.25;;
68140;SDS011;54941;52.220;104.306;2023-11-19T13:26:09;8.85;;;4.53;;
68140;SDS011;54941;52.220;104.306;2023-11-19T13:28:35;7.18;;;3.65;;
68140;SDS011;54941;52.220;104.306;2023-11-19T13:33:31;6.60;;;3.40;;
68140;SDS011;54941;52.220;104.306;2023-11-19T13:35:57;7.78;;;3.65;;
68140;SDS011;54941;52.220;104.306;2023-11-19T13:38:24;6.18;;;2.72;;
68140;SDS011;54941;52.220;104.306;2023-11-19T13:40:52;10.05;;;4.10;;
68140;SDS011;54941;52.220;104.306;2023-11-19T13:43:18;8.25;;;4.60;;
68140;SDS011;54941;52.220;104.306;2023-11-19T13:45:44;8.85;;;4.05;;
68140;SDS011;54941;52.220;104.306;2023-11-19T13:48:11;7.90;;;3.85;;
68140;SDS011;54941;52.220;104.306;2023-11-19T13:50:37;8.77;;;3.15;;
68140;SDS011;54941;52.220;104.306;2023-11-19T13:53:04;6.85;;;3.00;;
68140;SDS011;54941;52.220;104.306;2023-11-19T13:55:30;7.15;;;3.28;;
68140;SDS011;54941;52.220;104.306;2023-11-19T13:57:58;8.07;;;3.30;;
68140;SDS011;54941;52.220;104.306;2023-11-19T14:00:25;6.18;;;2.80;;
68140;SDS011;54941;52.220;104.306;2023-11-19T14:02:51;5.13;;;2.80;;
68140;SDS011;54941;52.220;104.306;2023-11-19T14:05:17;7.55;;;3.20;;
68140;SDS011;54941;52.220;104.306;2023-11-19T14:07:44;6.57;;;3.35;;
68140;SDS011;54941;52.220;104.306;2023-11-19T14:10:10;6.15;;;3.50;;
68140;SDS011;54941;52.220;104.306;2023-11-19T14:12:37;8.30;;;3.25;;
68140;SDS011;54941;52.220;104.306;2023-11-19T14:15:06;6.13;;;3.30;;
68140;SDS011;54941;52.220;104.306;2023-11-19T14:19:59;7.43;;;3.30;;
68140;SDS011;54941;52.220;104.306;2023-11-19T14:22:25;7.95;;;3.55;;
68140;SDS011;54941;52.220;104.306;2023-11-19T14:24:52;9.15;;;4.53;;
68140;SDS011;54941;52.220;104.306;2023-11-19T14:27:18;13.23;;;5.80;;
68140;SDS011;54941;52.220;104.306;2023-11-19T14:29:45;7.97;;;4.38;;
68140;SDS011;54941;52.220;104.306;2023-11-19T14:32:12;9.07;;;3.90;;
68140;SDS011;54941;52.220;104.306;2023-11-19T14:34:39;8.05;;;4.03;;
68140;SDS011;54941;52.220;104.306;2023-11-19T14:37:05;8.07;;;3.70;;
68140;SDS011;54941;52.220;104.306;2023-11-19T14:39:31;8.98;;;4.53;;